»·PEaware :: N4403R KAVX-KSAN

N4403R :: KAVX-KSAN

FLIGHT INFORMATION

Flight Status: Arrived
Operator: Privately registered:
United States
More flights under this callsign
Pilot: Daniel S. (16855)
Aircraft: CESSNA 172 SKYHAWK
(C172)
More flights by this aircraft type
Origin: KAVX Catalina
United States
Destination: KSAN San Diego Intl-Lindbergh
United States
More flights between these airports :: More routes between these airports
Route: +SXC V208 OCN V23 MZB
File this flight plan on PilotEdge
Remarks:
Altitude:
(Current/Filed)
5,000ft
Speed:
(Current/Filed)
115kts
Departed: 13-Nov-17 09:02 PM
Arrived: 13-Nov-17 10:14 PM
Distance/Time
Traveled:
74nm/1:12
Distance/Time
To Go:
Arrived

Flight Plot

Page will automatically refresh every two minutes.


Map Options




Map Legend


Flown Route
Filed Route
Departure Airport
Arrival Airport
Navaid (VOR, NDB)
Fix

Horizontal Profiles

Position Reports

Time Latitude Longitude Heading Altitude Ground
Speed
13-Nov-17 20:46 33.403293 -118.415953 44 1551ft 0kts
13-Nov-17 20:47 33.403293 -118.415953 44 1551ft 0kts
13-Nov-17 20:48 33.403293 -118.415953 44 1551ft 0kts
13-Nov-17 20:49 33.403293 -118.415953 44 1551ft 0kts
13-Nov-17 20:50 33.403293 -118.415953 44 1551ft 0kts
13-Nov-17 20:51 33.403293 -118.415953 44 1551ft 0kts
13-Nov-17 20:52 33.403293 -118.415953 44 1551ft 0kts
13-Nov-17 20:53 33.403293 -118.415953 44 1551ft 0kts
13-Nov-17 20:54 33.403293 -118.415953 44 1551ft 0kts
13-Nov-17 20:55 33.403293 -118.415953 44 1551ft 0kts
13-Nov-17 20:56 33.403293 -118.415953 44 1551ft 0kts
13-Nov-17 20:57 33.403293 -118.415953 44 1551ft 0kts
13-Nov-17 20:58 33.403293 -118.415953 44 1551ft 0kts
13-Nov-17 20:59 33.403293 -118.415953 44 1551ft 0kts
13-Nov-17 21:00 33.403293 -118.415953 44 1551ft 0kts
13-Nov-17 21:01 33.406191 -118.413034 48 1518ft 24kts
13-Nov-17 21:02 33.407333 -118.411408 332 1499ft 0kts
13-Nov-17 21:03 33.407333 -118.411408 332 1499ft 0kts
13-Nov-17 21:04 33.407333 -118.411408 332 1499ft 0kts
13-Nov-17 21:05 33.407333 -118.411408 332 1499ft 0kts
13-Nov-17 21:06 33.407444 -118.411561 290 1500ft 6kts
13-Nov-17 21:07 33.399961 -118.423756 236 1879ft 81kts
13-Nov-17 21:08 33.378790 -118.425824 172 2910ft 88kts
13-Nov-17 21:09 33.363623 -118.404870 104 3767ft 95kts
13-Nov-17 21:10 33.359825 -118.373889 91 4599ft 96kts
13-Nov-17 21:11 33.359378 -118.342963 93 5322ft 100kts
13-Nov-17 21:12 33.353131 -118.307828 104 5252ft 136kts
13-Nov-17 21:13 33.344318 -118.271753 112 5258ft 139kts
13-Nov-17 21:14 33.339067 -118.241530 93 5330ft 129kts
13-Nov-17 21:15 33.337397 -118.210993 94 5288ft 131kts
13-Nov-17 21:16 33.331734 -118.187801 109 5324ft 132kts
13-Nov-17 21:17 33.329317 -118.163790 94 5316ft 131kts
13-Nov-17 21:18 33.328364 -118.135709 89 5134ft 137kts
13-Nov-17 21:19 33.329485 -118.103262 93 5028ft 141kts
13-Nov-17 21:20 33.325198 -118.070902 95 5126ft 136kts
13-Nov-17 21:21 33.322476 -118.047536 98 5125ft 136kts
13-Nov-17 21:22 33.316863 -118.020919 108 4981ft 145kts
13-Nov-17 21:23 33.310192 -117.994687 89 5235ft 128kts
13-Nov-17 21:24 33.309135 -117.963766 92 5198ft 135kts
13-Nov-17 21:25 33.305887 -117.928101 91 5286ft 128kts
13-Nov-17 21:26 33.301905 -117.890069 100 5250ft 135kts
13-Nov-17 21:27 33.292534 -117.848454 111 5247ft 134kts
13-Nov-17 21:28 33.280478 -117.808419 87 5267ft 122kts
13-Nov-17 21:29 33.276200 -117.768206 101 5309ft 129kts
13-Nov-17 21:30 33.269481 -117.727651 92 5261ft 130kts
13-Nov-17 21:31 33.268363 -117.686626 83 5259ft 120kts
13-Nov-17 21:32 33.263794 -117.647483 107 5097ft 135kts
13-Nov-17 21:33 33.259498 -117.610017 84 5219ft 124kts
13-Nov-17 21:34 33.258800 -117.572331 90 5166ft 128kts
13-Nov-17 21:35 33.265802 -117.536540 59 5098ft 125kts
13-Nov-17 21:36 33.262563 -117.501387 119 5233ft 127kts
13-Nov-17 21:37 33.231612 -117.480196 151 5188ft 125kts
13-Nov-17 21:38 33.199154 -117.460088 149 5189ft 130kts
13-Nov-17 21:39 33.168011 -117.439602 157 5219ft 132kts
13-Nov-17 21:40 33.133995 -117.425345 162 5225ft 134kts
13-Nov-17 21:41 33.101466 -117.408038 154 5258ft 132kts
13-Nov-17 21:42 33.069163 -117.389100 152 5142ft 135kts
13-Nov-17 21:43 33.037674 -117.372364 158 5267ft 129kts
13-Nov-17 21:44 33.005973 -117.357561 153 5179ft 136kts
13-Nov-17 21:45 32.978595 -117.339374 153 5184ft 131kts
13-Nov-17 21:46 32.951507 -117.322820 156 5134ft 138kts
13-Nov-17 21:47 32.922471 -117.306969 157 5157ft 131kts
13-Nov-17 21:48 32.892399 -117.292306 157 5193ft 136kts
13-Nov-17 21:49 32.860738 -117.273551 154 5138ft 141kts
13-Nov-17 21:50 32.828181 -117.252137 146 5122ft 142kts
13-Nov-17 21:51 32.803704 -117.232255 140 5213ft 131kts
13-Nov-17 21:52 32.791571 -117.196681 92 5218ft 140kts
13-Nov-17 21:53 32.788401 -117.169132 91 5162ft 134kts
13-Nov-17 21:54 32.784823 -117.139401 99 5192ft 135kts
13-Nov-17 21:55 32.779266 -117.109464 102 5153ft 117kts
13-Nov-17 21:56 32.772748 -117.081126 96 5133ft 116kts
13-Nov-17 21:57 32.769491 -117.060030 100 5250ft 107kts
13-Nov-17 21:58 32.762839 -117.031680 101 5175ft 116kts
13-Nov-17 21:59 32.757274 -117.002638 96 5178ft 113kts
13-Nov-17 22:00 32.751151 -116.973509 102 5239ft 112kts
13-Nov-17 22:01 32.745645 -116.945178 95 5207ft 114kts
13-Nov-17 22:02 32.740404 -116.915403 97 5181ft 116kts
13-Nov-17 22:03 32.736082 -116.882864 100 5168ft 114kts
13-Nov-17 22:04 32.718313 -116.863169 200 5076ft 117kts
13-Nov-17 22:05 32.692960 -116.877520 206 4493ft 119kts
13-Nov-17 22:06 32.674984 -116.896350 261 4097ft 94kts
13-Nov-17 22:07 32.670260 -116.923164 274 4194ft 105kts
13-Nov-17 22:08 32.675922 -116.949255 289 3936ft 102kts
13-Nov-17 22:09 32.681312 -116.973798 282 3766ft 81kts
13-Nov-17 22:10 32.685429 -116.994965 295 3430ft 76kts
13-Nov-17 22:11 32.692356 -117.016471 286 3137ft 78kts
13-Nov-17 22:12 32.696718 -117.041078 281 2842ft 89kts
13-Nov-17 22:13 32.701417 -117.066026 287 2156ft 84kts
13-Nov-17 22:14 32.706114 -117.088157 289 1980ft 78kts
13-Nov-17 22:15 32.714005 -117.111462 288 1139ft 88kts
13-Nov-17 22:16 32.719221 -117.134141 289 715ft 72kts
13-Nov-17 22:17 32.725284 -117.157411 287 627ft 63kts
13-Nov-17 22:18 32.730540 -117.177405 289 122ft 60kts
13-Nov-17 22:19 32.733278 -117.187873 316 17ft 17kts
13-Nov-17 22:20 32.734253 -117.188093 30 17ft 9kts
13-Nov-17 22:21 32.734468 -117.187731 92 17ft 0kts

Navigation Log

Ident Type
1. KAVX Airport
2. SXC Navaid
3. AVOLS Fix
4. PACIF Fix
5. HUBRD Fix
6. OCN Navaid
7. HURSI Fix
8. CARIF Fix
9. MZB Navaid
10. KSAN Airport